sim
Sign-in with your pilot id or email,
or register
Callsign
Passwort

Schedule Details

Flight Number: DLH1619
Departure: Rzeszow Jasionka Airport (EPRZ) at 12:20
Arrival: Munich Airport (EDDM) at 13:50
Route: Lufthansa Passenger Schedule. Enter filed route here before submitting Pirep.

Weather Information
Getting current METAR information for EPRZ 010600Z 32006KT 3500 -RA BR OVC003 12/12 Q1003
Getting current METAR information for EDDM 010620Z 00000KT 0800 R08L/0550D R08R/0275N FG SCT001 05/04 Q1009 BECMG 1500 BCFG

Schedule Frequency

Route Map